Time;durP1;ratioP1;P1;durP2;ratioP2;P2;SDS_P1;SDS_P2;PMS_P1;PMS_P2;Temp;Humidity;BMP_temperature;BMP_pressure;BME280_temperature;BME280_humidity;BME280_pressure;Samples;Min_cycle;Max_cycle;Signal;HPM_P1;HPM_P2
2023/08/06 00:00:44;;;;;;;4.18;1.60;;;;;;;17.19;87.71;100241.41;2056766;28;20035;-76
2023/08/06 00:01:46;;;;;;;5.20;1.33;;;;;;;17.20;87.46;100243.78;2064559;28;21322;-76
2023/08/06 00:02:47;;;;;;;4.03;1.50;;;;;;;17.19;87.30;100244.94;2056421;28;20161;-77
2023/08/06 00:03:51;;;;;;;4.50;1.83;;;;;;;17.20;87.63;100251.94;2064833;28;20041;-77
2023/08/06 00:04:53;;;;;;;2.40;1.52;;;;;;;17.22;87.63;100246.97;2056595;28;20031;-77
2023/08/06 00:05:54;;;;;;;3.78;1.67;;;;;;;17.22;87.68;100246.97;2048326;28;20114;-77
2023/08/06 00:06:56;;;;;;;3.30;1.30;;;;;;;17.22;87.72;100248.91;2040694;28;20886;-77
2023/08/06 00:07:57;;;;;;;6.72;1.35;;;;;;;17.22;87.73;100260.56;2064631;28;20039;-77
2023/08/06 00:08:59;;;;;;;5.10;1.33;;;;;;;17.20;87.47;100249.22;2073458;28;20794;-77
2023/08/06 00:10:00;;;;;;;3.00;1.35;;;;;;;17.21;87.40;100258.16;2072251;28;20042;-77
2023/08/06 00:11:02;;;;;;;4.03;1.50;;;;;;;17.22;87.40;100248.91;2056368;28;20149;-76
2023/08/06 00:12:05;;;;;;;5.57;1.40;;;;;;;17.21;87.25;100239.94;2056120;28;20800;-77
2023/08/06 00:13:09;;;;;;;4.50;1.58;;;;;;;17.19;86.86;100236.78;2056538;28;20138;-77
2023/08/06 00:14:11;;;;;;;5.97;1.40;;;;;;;17.19;86.89;100230.56;2064229;28;20798;-77
2023/08/06 00:15:12;;;;;;;4.63;1.35;;;;;;;17.18;86.33;100224.31;2038314;28;20863;-77
2023/08/06 00:16:14;;;;;;;3.67;1.55;;;;;;;17.19;85.69;100216.97;2048541;28;20143;-77
2023/08/06 00:17:16;;;;;;;4.07;1.30;;;;;;;17.16;85.21;100215.69;2056396;28;20042;-76
2023/08/06 00:18:18;;;;;;;4.28;1.20;;;;;;;17.15;84.72;100216.84;2040654;28;20043;-76
2023/08/06 00:19:19;;;;;;;3.90;1.38;;;;;;;17.11;84.39;100211.25;2040765;28;20032;-77
2023/08/06 00:20:23;;;;;;;5.40;2.38;;;;;;;17.12;84.25;100210.13;2047706;28;21009;-76
2023/08/06 00:21:24;;;;;;;5.38;1.55;;;;;;;17.12;84.51;100214.78;2056344;28;20118;-77
2023/08/06 00:22:26;;;;;;;3.47;1.33;;;;;;;17.11;84.14;100213.16;2048102;28;20078;-78
2023/08/06 00:23:28;;;;;;;2.33;1.30;;;;;;;17.14;84.07;100212.50;2060850;28;20026;-76
2023/08/06 00:24:29;;;;;;;4.30;1.33;;;;;;;17.15;84.44;100205.97;2064025;28;20074;-76
2023/08/06 00:25:31;;;;;;;2.72;1.30;;;;;;;17.18;84.60;100205.31;2056255;28;20034;-77
2023/08/06 00:26:33;;;;;;;2.50;1.30;;;;;;;17.17;83.88;100213.78;2067913;28;20030;-78
2023/08/06 00:27:34;;;;;;;4.28;1.42;;;;;;;17.14;84.13;100212.50;2069429;28;20037;-77
2023/08/06 00:28:36;;;;;;;3.15;1.50;;;;;;;17.11;84.30;100208.53;2072402;28;20141;-77
2023/08/06 00:29:37;;;;;;;4.00;1.50;;;;;;;17.11;84.41;100213.16;2064061;28;20118;-77
2023/08/06 00:30:39;;;;;;;2.28;1.38;;;;;;;17.10;84.62;100211.59;2048281;28;20819;-77
2023/08/06 00:31:41;;;;;;;3.33;1.50;;;;;;;17.12;84.71;100212.06;2048494;28;20038;-77
2023/08/06 00:32:42;;;;;;;6.50;1.60;;;;;;;17.10;85.02;100206.94;2040388;28;20032;-77
2023/08/06 00:33:46;;;;;;;4.60;1.38;;;;;;;17.12;85.68;100210.13;2057025;28;20153;-78
2023/08/06 00:34:49;;;;;;;6.57;1.40;;;;;;;17.11;85.75;100208.53;2063954;28;20937;-75
2023/08/06 00:35:51;;;;;;;4.38;1.50;;;;;;;17.13;85.85;100211.72;2056770;28;20058;-76
2023/08/06 00:36:54;;;;;;;3.88;1.50;;;;;;;17.11;85.93;100208.53;2048041;28;20116;-75
2023/08/06 00:37:55;;;;;;;4.28;1.60;;;;;;;17.14;86.63;100198.94;2049380;28;20051;-76
2023/08/06 00:38:57;;;;;;;7.30;2.08;;;;;;;17.13;86.77;100198.13;2056601;28;20039;-76
2023/08/06 00:39:59;;;;;;;2.80;1.38;;;;;;;17.09;87.05;100196.44;2049353;28;20874;-76
2023/08/06 00:41:02;;;;;;;4.38;1.60;;;;;;;17.06;87.22;100199.81;2064581;28;20031;-75
2023/08/06 00:42:04;;;;;;;4.55;1.40;;;;;;;17.05;87.29;100204.41;2064911;28;20097;-75
2023/08/06 00:43:05;;;;;;;3.22;1.70;;;;;;;17.04;87.60;100202.84;2049566;28;20030;-75
2023/08/06 00:44:07;;;;;;;4.50;1.55;;;;;;;17.04;87.28;100196.63;2057515;28;20051;-75
2023/08/06 00:45:09;;;;;;;4.50;1.25;;;;;;;17.04;87.29;100200.13;2045867;28;20019;-75
2023/08/06 00:46:11;;;;;;;4.55;1.60;;;;;;;17.08;87.17;100195.59;2057893;28;20043;-75
2023/08/06 00:47:13;;;;;;;5.18;1.50;;;;;;;17.11;86.97;100202.31;2057450;28;20031;-75
2023/08/06 00:48:15;;;;;;;3.88;1.65;;;;;;;17.09;86.46;100191.78;2058039;28;20024;-75
2023/08/06 00:49:17;;;;;;;5.63;1.63;;;;;;;17.11;86.43;100192.22;2057267;28;20035;-75
2023/08/06 00:50:22;;;;;;;3.78;1.40;;;;;;;17.12;86.50;100193.06;2050042;28;20024;-76
2023/08/06 00:51:26;;;;;;;2.83;1.40;;;;;;;17.14;86.33;100194.28;2049960;28;20036;-75
2023/08/06 00:52:28;;;;;;;4.43;1.50;;;;;;;17.13;86.12;100191.91;2050830;28;20035;-75
2023/08/06 00:53:31;;;;;;;3.15;1.38;;;;;;;17.12;86.00;100187.63;2049678;28;21105;-75
2023/08/06 00:54:37;;;;;;;5.40;1.40;;;;;;;17.13;86.03;100178.34;2050183;28;20063;-75
2023/08/06 00:55:41;;;;;;;3.08;1.50;;;;;;;17.14;86.26;100174.47;2058133;28;20026;-75
2023/08/06 00:56:43;;;;;;;3.38;1.42;;;;;;;17.14;86.31;100164.41;2066208;28;20074;-75
2023/08/06 00:57:45;;;;;;;8.48;1.52;;;;;;;17.13;86.17;100162.03;2065373;28;20041;-75
2023/08/06 00:58:47;;;;;;;5.05;1.60;;;;;;;17.09;86.40;100171.97;2058146;28;20047;-75
2023/08/06 00:59:49;;;;;;;6.57;1.70;;;;;;;17.11;86.08;100175.13;2057508;28;20084;-75
2023/08/06 01:00:52;;;;;;;5.10;1.40;;;;;;;17.05;86.07;100166.38;2057511;28;20910;-76
2023/08/06 01:01:53;;;;;;;2.70;1.42;;;;;;;17.03;85.31;100176.03;2057936;28;20034;-76
2023/08/06 01:02:55;;;;;;;6.75;1.80;;;;;;;16.98;84.59;100181.63;2057721;28;20042;-76
2023/08/06 01:03:58;;;;;;;5.10;1.45;;;;;;;16.90;84.50;100180.59;2041487;28;20032;-76
2023/08/06 01:05:01;;;;;;;2.15;1.27;;;;;;;16.86;84.90;100180.41;2042754;28;20036;-76
2023/08/06 01:06:02;;;;;;;2.90;1.60;;;;;;;16.80;85.13;100172.81;2057869;28;20028;-75
2023/08/06 01:07:26;;;;;;;4.22;1.42;;;;;;;16.76;85.23;100188.16;2057318;28;20863;-76
2023/08/06 01:09:05;;;;;;;2.78;1.50;;;;;;;16.76;85.57;100174.59;2048255;28;20043;-78
2023/08/06 01:10:30;;;;;;;2.75;1.50;;;;;;;16.75;86.04;100173.81;2064577;28;20101;-76
2023/08/06 01:11:51;;;;;;;4.00;1.60;;;;;;;16.75;86.55;100157.50;2060710;28;20034;-76
2023/08/06 01:13:12;;;;;;;3.70;1.48;;;;;;;16.79;86.58;100165.78;2059250;28;20122;-76
2023/08/06 01:14:23;;;;;;;3.42;1.85;;;;;;;16.80;87.17;100156.50;2059758;28;20032;-76
2023/08/06 01:15:35;;;;;;;5.72;1.80;;;;;;;16.76;87.80;100158.31;2045855;28;20042;-76
2023/08/06 01:16:39;;;;;;;2.97;1.70;;;;;;;16.69;88.42;100156.09;2052560;28;20039;-76
2023/08/06 01:17:41;;;;;;;3.92;1.70;;;;;;;16.62;89.14;100150.38;2057711;28;20110;-76
2023/08/06 01:18:46;;;;;;;3.50;1.50;;;;;;;16.57;89.26;100151.34;2057294;28;20051;-76
2023/08/06 01:19:47;;;;;;;5.70;1.75;;;;;;;16.55;89.71;100152.81;2049887;28;20028;-76
2023/08/06 01:20:49;;;;;;;5.53;1.63;;;;;;;16.54;90.01;100156.66;2056750;28;20039;-76
2023/08/06 01:21:51;;;;;;;4.95;1.60;;;;;;;16.51;90.33;100147.25;2057346;28;20109;-77
2023/08/06 01:22:53;;;;;;;5.78;1.67;;;;;;;16.47;91.05;100143.59;2057543;28;20087;-77
2023/08/06 01:23:56;;;;;;;4.47;1.70;;;;;;;16.42;91.29;100143.78;2049183;28;20044;-77
2023/08/06 01:24:57;;;;;;;4.72;1.70;;;;;;;16.42;91.19;100139.19;2049651;28;20737;-77
2023/08/06 01:26:09;;;;;;;4.10;1.45;;;;;;;16.42;91.22;100143.78;2057113;28;20035;-76
2023/08/06 01:27:23;;;;;;;4.72;1.50;;;;;;;16.38;91.65;100142.84;2048283;28;20150;-76
2023/08/06 01:28:27;;;;;;;5.68;1.60;;;;;;;16.39;91.87;100141.72;2050154;28;20035;-76
2023/08/06 01:29:39;;;;;;;4.70;1.85;;;;;;;16.36;91.76;100140.47;2057360;28;20165;-76
2023/08/06 01:30:43;;;;;;;4.57;1.80;;;;;;;16.31;91.82;100132.50;2059310;28;20043;-76
2023/08/06 01:31:48;;;;;;;6.70;1.85;;;;;;;16.25;91.99;100127.59;2058015;28;20039;-76
2023/08/06 01:32:53;;;;;;;4.70;1.70;;;;;;;16.21;92.68;100128.25;2050153;28;20039;-75
2023/08/06 01:33:57;;;;;;;4.05;1.70;;;;;;;16.20;92.91;100132.09;2041267;28;20028;-75
2023/08/06 01:35:01;;;;;;;5.47;1.50;;;;;;;16.16;93.26;100124.94;2035234;28;20844;-75
2023/08/06 01:36:06;;;;;;;2.58;1.80;;;;;;;16.16;93.43;100130.34;2050098;28;20032;-75
2023/08/06 01:37:08;;;;;;;2.67;1.40;;;;;;;16.15;93.51;100128.78;2058051;28;20063;-75
2023/08/06 01:38:10;;;;;;;4.75;1.88;;;;;;;16.12;93.91;100122.06;2057412;28;20023;-74
2023/08/06 01:39:13;;;;;;;4.35;1.90;;;;;;;16.07;93.83;100122.25;2065043;28;20022;-74
2023/08/06 01:40:15;;;;;;;6.10;2.00;;;;;;;16.04;94.00;100114.75;2057292;28;20035;-74
2023/08/06 01:41:20;;;;;;;3.55;1.60;;;;;;;15.97;94.36;100112.56;2057994;28;20034;-74
2023/08/06 01:42:24;;;;;;;8.23;2.05;;;;;;;15.94;94.83;100113.22;2066303;28;20127;-75
2023/08/06 01:43:26;;;;;;;6.32;1.92;;;;;;;15.90;95.14;100116.91;2058013;28;21232;-75
2023/08/06 01:44:28;;;;;;;3.67;1.67;;;;;;;15.89;95.30;100107.16;2049523;28;20039;-75
2023/08/06 01:45:29;;;;;;;6.85;2.75;;;;;;;15.89;95.33;100109.88;2045612;28;20138;-75
2023/08/06 01:46:32;;;;;;;5.32;1.90;;;;;;;15.89;95.62;100109.88;2050741;28;20047;-75
2023/08/06 01:47:33;;;;;;;6.75;2.13;;;;;;;15.91;95.92;100108.44;2049369;28;20063;-75
2023/08/06 01:48:34;;;;;;;6.88;2.33;;;;;;;15.96;96.38;100110.97;2049698;28;20019;-76
2023/08/06 01:49:36;;;;;;;3.63;1.73;;;;;;;15.96;96.19;100113.69;2045388;28;20047;-76
2023/08/06 01:50:38;;;;;;;5.25;2.25;;;;;;;15.94;95.97;100112.41;2049294;28;20223;-76
2023/08/06 01:51:40;;;;;;;4.07;1.75;;;;;;;15.94;96.18;100110.50;2065907;28;20039;-76
2023/08/06 01:52:42;;;;;;;5.28;1.90;;;;;;;15.94;96.30;100107.78;2073439;28;20046;-76
2023/08/06 01:53:44;;;;;;;3.88;1.85;;;;;;;15.95;96.52;100105.88;2065397;28;20138;-76
2023/08/06 01:54:46;;;;;;;5.38;1.90;;;;;;;15.94;96.42;100101.56;2065586;28;20142;-76
2023/08/06 01:55:50;;;;;;;4.47;1.73;;;;;;;15.88;96.67;100109.09;2057498;28;20027;-78
2023/08/06 01:56:53;;;;;;;3.67;1.50;;;;;;;15.81;96.74;100103.38;2049859;28;20040;-75
2023/08/06 01:57:55;;;;;;;3.60;1.67;;;;;;;15.82;97.02;100104.97;2057416;28;20047;-76
2023/08/06 01:58:57;;;;;;;6.55;1.98;;;;;;;15.85;97.06;100101.59;2057302;28;20058;-76
2023/08/06 01:59:59;;;;;;;4.95;1.98;;;;;;;15.85;97.23;100106.22;2057138;28;20748;-76
2023/08/06 02:01:02;;;;;;;4.70;1.60;;;;;;;15.80;97.44;100093.66;2057986;28;20043;-76
2023/08/06 02:02:06;;;;;;;4.85;2.10;;;;;;;15.78;97.61;100082.34;2065485;28;20039;-76
2023/08/06 02:03:11;;;;;;;4.40;1.75;;;;;;;15.78;97.75;100089.69;2065807;28;20026;-76
2023/08/06 02:04:12;;;;;;;3.47;1.70;;;;;;;15.74;97.82;100086.84;2057979;28;20899;-76
2023/08/06 02:05:14;;;;;;;6.20;1.95;;;;;;;15.71;98.15;100085.56;2057274;28;20106;-75
2023/08/06 02:06:16;;;;;;;5.70;1.90;;;;;;;15.71;98.21;100088.28;2057360;28;20146;-75
2023/08/06 02:07:18;;;;;;;4.05;2.38;;;;;;;15.74;98.87;100086.84;2042043;28;20087;-75
2023/08/06 02:08:20;;;;;;;7.00;1.88;;;;;;;15.71;98.57;100082.06;2059099;28;21248;-75
2023/08/06 02:09:22;;;;;;;4.88;2.00;;;;;;;15.73;99.36;100085.22;2066608;28;20142;-76
2023/08/06 02:10:24;;;;;;;2.78;1.80;;;;;;;15.75;99.20;100077.56;2059240;28;20034;-76
2023/08/06 02:11:26;;;;;;;6.45;1.70;;;;;;;15.75;99.41;100067.53;2058214;28;20078;-75
2023/08/06 02:12:31;;;;;;;3.67;1.77;;;;;;;15.78;99.32;100070.72;2058982;28;20046;-76
2023/08/06 02:13:33;;;;;;;6.07;1.92;;;;;;;15.78;99.78;100060.66;2058899;28;20046;-76
2023/08/06 02:14:36;;;;;;;3.22;1.90;;;;;;;15.73;99.56;100063.53;2067387;28;20039;-76
2023/08/06 02:15:43;;;;;;;4.70;2.00;;;;;;;15.69;99.76;100063.41;2074635;28;20862;-75
2023/08/06 02:16:45;;;;;;;3.55;1.77;;;;;;;15.73;100.00;100058.94;2051460;28;20748;-76
2023/08/06 02:17:47;;;;;;;8.23;2.38;;;;;;;15.76;100.00;100057.47;2043111;28;20154;-76
2023/08/06 02:18:49;;;;;;;3.65;1.90;;;;;;;15.74;100.00;100057.03;2050591;28;21111;-76
2023/08/06 02:20:01;;;;;;;5.93;2.20;;;;;;;15.78;100.00;100055.22;2060271;28;20139;-76
2023/08/06 02:21:03;;;;;;;6.80;2.25;;;;;;;15.75;100.00;100050.47;2059802;28;20105;-77
2023/08/06 02:22:05;;;;;;;6.50;2.00;;;;;;;15.74;100.00;100044.25;2050752;28;20539;-76
2023/08/06 02:23:06;;;;;;;3.42;2.10;;;;;;;15.74;100.00;100038.84;2058953;28;20027;-76
2023/08/06 02:24:11;;;;;;;4.50;1.98;;;;;;;15.73;100.00;100037.25;2058428;28;20050;-78
2023/08/06 02:25:13;;;;;;;8.38;2.20;;;;;;;15.73;100.00;100031.00;2059904;28;20180;-77
2023/08/06 02:26:15;;;;;;;12.18;2.20;;;;;;;15.74;100.00;100038.84;2066786;28;20015;-78
2023/08/06 02:27:17;;;;;;;6.18;2.45;;;;;;;15.75;100.00;100039.63;2066688;28;20878;-78
2023/08/06 02:28:18;;;;;;;6.22;2.58;;;;;;;15.76;100.00;100022.22;2066831;28;20027;-77
2023/08/06 02:29:22;;;;;;;3.63;2.13;;;;;;;15.76;100.00;100024.94;2074825;28;20948;-77
2023/08/06 02:30:25;;;;;;;5.43;2.40;;;;;;;15.77;100.00;100021.13;2066452;28;20781;-78
2023/08/06 02:31:26;;;;;;;5.10;2.20;;;;;;;15.77;100.00;100010.28;2050839;28;20198;-77
2023/08/06 02:32:31;;;;;;;5.05;2.28;;;;;;;15.81;100.00;100016.63;2058526;28;20154;-78
2023/08/06 02:33:34;;;;;;;5.50;2.50;;;;;;;15.85;100.00;100016.78;2058945;28;20054;-77
2023/08/06 02:34:36;;;;;;;7.10;2.50;;;;;;;15.84;100.00;100015.97;2058705;28;20038;-76
2023/08/06 02:35:37;;;;;;;6.78;2.53;;;;;;;15.84;100.00;100015.19;2050302;28;20123;-77
2023/08/06 02:36:39;;;;;;;5.85;2.60;;;;;;;15.84;100.00;100004.34;2058761;28;20063;-77
2023/08/06 02:37:43;;;;;;;5.90;2.40;;;;;;;15.82;100.00;100012.78;2058727;28;20204;-77
2023/08/06 02:38:45;;;;;;;6.70;2.70;;;;;;;15.80;100.00;99990.66;2051137;28;20026;-77
2023/08/06 02:39:50;;;;;;;5.60;2.70;;;;;;;15.83;100.00;99998.13;2058531;28;20035;-77
2023/08/06 02:40:51;;;;;;;4.45;2.17;;;;;;;15.86;100.00;99996.69;2043293;28;20037;-77
2023/08/06 02:41:53;;;;;;;4.50;2.47;;;;;;;15.86;100.00;99996.69;2042550;28;20046;-77
2023/08/06 02:42:58;;;;;;;6.28;2.60;;;;;;;15.85;100.00;99993.16;2059110;28;20921;-77
2023/08/06 02:43:59;;;;;;;3.78;2.30;;;;;;;15.86;100.00;99991.28;2066596;28;20038;-77
2023/08/06 02:45:01;;;;;;;6.75;2.72;;;;;;;15.87;100.00;99988.22;2066460;28;20117;-76
2023/08/06 02:46:04;;;;;;;3.95;2.30;;;;;;;15.88;100.00;99981.66;2074574;28;20948;-76
2023/08/06 02:47:10;;;;;;;6.28;2.70;;;;;;;15.91;100.00;99989.16;2067041;28;21295;-77
2023/08/06 02:48:11;;;;;;;7.63;2.58;;;;;;;15.88;100.00;99984.38;2058935;28;20150;-76
2023/08/06 02:49:13;;;;;;;4.85;2.50;;;;;;;15.88;100.00;99970.03;2042506;28;20811;-76
2023/08/06 02:50:15;;;;;;;8.00;2.65;;;;;;;15.85;100.00;99974.19;2034934;28;20139;-76
2023/08/06 02:51:17;;;;;;;6.68;2.70;;;;;;;15.88;100.00;99962.69;2050804;28;20028;-76
2023/08/06 02:52:21;;;;;;;3.05;2.70;;;;;;;15.90;100.00;99965.88;2058770;28;20091;-77
2023/08/06 02:53:23;;;;;;;7.10;2.97;;;;;;;15.90;100.00;99960.47;2042913;28;20044;-76
2023/08/06 02:54:26;;;;;;;4.25;2.78;;;;;;;15.91;100.00;99944.97;2050803;28;20227;-76
2023/08/06 02:55:28;;;;;;;6.90;2.70;;;;;;;15.92;100.00;99957.41;2066897;28;20030;-76
2023/08/06 02:56:30;;;;;;;8.18;2.85;;;;;;;15.91;100.00;99943.06;2074497;28;20073;-76
2023/08/06 02:57:51;;;;;;;5.65;2.90;;;;;;;15.91;100.00;99955.81;2074823;28;20039;-77
2023/08/06 02:58:53;;;;;;;6.28;2.88;;;;;;;15.90;100.00;99955.03;2058077;28;20035;-76
2023/08/06 03:00:24;;;;;;;5.93;3.20;;;;;;;15.90;100.00;99955.03;2061800;28;20093;-77
2023/08/06 03:01:28;;;;;;;4.82;2.55;;;;;;;15.89;100.00;99950.75;2066656;28;20145;-77
2023/08/06 03:02:34;;;;;;;7.00;2.85;;;;;;;15.90;100.00;99937.97;2067499;28;20034;-77
2023/08/06 03:03:54;;;;;;;6.70;2.83;;;;;;;15.90;100.00;99937.97;2068346;28;20811;-76
2023/08/06 03:05:04;;;;;;;7.90;3.28;;;;;;;15.91;100.00;99943.06;2059918;28;20893;-77
2023/08/06 03:06:09;;;;;;;6.90;2.83;;;;;;;15.93;100.00;99937.31;2043694;28;20044;-76
2023/08/06 03:07:22;;;;;;;10.35;2.78;;;;;;;15.92;100.00;99936.53;2039484;28;20776;-76
2023/08/06 03:08:30;;;;;;;7.47;3.20;;;;;;;15.96;100.00;99931.25;2046555;28;20036;-77
2023/08/06 03:09:32;;;;;;;4.68;2.70;;;;;;;16.01;100.00;99932.94;2058331;28;20122;-77
2023/08/06 03:10:35;;;;;;;5.93;2.67;;;;;;;16.02;100.00;99921.00;2058981;28;20031;-77
2023/08/06 03:11:40;;;;;;;8.90;3.13;;;;;;;16.03;100.00;99928.00;2066504;28;20793;-79
2023/08/06 03:12:46;;;;;;;5.13;3.28;;;;;;;16.05;100.00;99931.19;2066546;28;20047;-77
2023/08/06 03:13:48;;;;;;;7.53;3.00;;;;;;;16.08;100.00;99922.38;2058564;28;20035;-77
2023/08/06 03:14:51;;;;;;;7.13;3.10;;;;;;;16.10;100.00;99928.25;2057938;28;20063;-77
2023/08/06 03:15:57;;;;;;;9.63;3.60;;;;;;;16.14;100.00;99926.47;2042508;28;20087;-78
2023/08/06 03:17:00;;;;;;;9.55;2.55;;;;;;;16.17;100.00;99921.19;2051134;28;20846;-78
2023/08/06 03:18:01;;;;;;;6.43;2.60;;;;;;;16.19;100.00;99924.34;2050062;28;20150;-76
2023/08/06 03:19:04;;;;;;;5.93;2.70;;;;;;;16.20;100.00;99920.53;2058281;28;20047;-76
2023/08/06 03:20:07;;;;;;;5.57;2.30;;;;;;;16.21;100.00;99915.91;2057740;28;20834;-75
2023/08/06 03:21:10;;;;;;;8.13;2.70;;;;;;;16.22;100.00;99906.63;2058457;28;20046;-76
2023/08/06 03:22:12;;;;;;;7.72;2.45;;;;;;;16.24;100.00;99909.81;2058275;28;20231;-77
2023/08/06 03:23:16;;;;;;;4.78;2.45;;;;;;;16.25;100.00;99895.13;2058558;28;20055;-76
2023/08/06 03:24:18;;;;;;;4.28;2.00;;;;;;;16.25;100.00;99892.41;2050385;28;20023;-76
2023/08/06 03:25:21;;;;;;;6.60;2.90;;;;;;;16.29;100.00;99896.03;2050652;28;20154;-75
2023/08/06 03:26:25;;;;;;;10.68;3.00;;;;;;;16.30;100.00;99873.22;2058455;28;20162;-75
2023/08/06 03:27:27;;;;;;;4.78;2.40;;;;;;;16.31;100.00;99880.22;2066430;28;20884;-76
2023/08/06 03:28:28;;;;;;;6.85;2.53;;;;;;;16.31;100.00;99877.50;2057908;28;20110;-76
2023/08/06 03:29:30;;;;;;;7.95;2.35;;;;;;;16.31;100.00;99858.53;2066569;28;20243;-75
2023/08/06 03:30:37;;;;;;;7.57;2.58;;;;;;;16.31;100.00;99855.81;2074183;28;20038;-76
2023/08/06 03:31:39;;;;;;;7.72;2.60;;;;;;;16.30;100.00;99831.72;2066320;28;20867;-76
2023/08/06 03:32:40;;;;;;;6.72;2.75;;;;;;;16.31;100.00;99828.69;2042465;28;20036;-76
2023/08/06 03:33:43;;;;;;;7.88;3.28;;;;;;;16.31;100.00;99809.69;2050655;28;20789;-76
2023/08/06 03:34:50;;;;;;;8.95;3.33;;;;;;;16.31;100.00;99798.84;2058370;28;20106;-76
2023/08/06 03:35:53;;;;;;;6.00;3.10;;;;;;;16.33;100.00;99793.88;2050310;28;20961;-80
2023/08/06 03:36:56;;;;;;;10.60;3.75;;;;;;;16.36;100.00;99781.53;2050878;28;20150;-76
2023/08/06 03:37:57;;;;;;;7.95;3.58;;;;;;;16.36;100.00;99768.81;2049849;28;20043;-75
2023/08/06 03:38:59;;;;;;;11.07;3.42;;;;;;;16.36;100.00;99744.38;2050315;28;20027;-76
2023/08/06 03:40:02;;;;;;;10.35;3.60;;;;;;;16.37;100.00;99729.69;2066051;28;20027;-73
2023/08/06 03:41:06;;;;;;;8.85;3.35;;;;;;;16.35;100.00;99699.38;2049991;28;20060;-75
2023/08/06 03:42:11;;;;;;;6.22;3.53;;;;;;;16.34;100.00;99686.94;2056689;28;20065;-75
2023/08/06 03:43:13;;;;;;;9.00;3.47;;;;;;;16.34;100.00;99653.63;2057112;28;21005;-76
2023/08/06 03:44:20;;;;;;;8.82;3.75;;;;;;;16.31;100.00;99625.25;2057110;28;20042;-76
2023/08/06 03:45:25;;;;;;;12.85;3.83;;;;;;;16.31;100.00;99610.88;2065543;28;20138;-78
2023/08/06 03:46:27;;;;;;;8.02;3.85;;;;;;;16.29;100.00;99603.06;2056520;28;20141;-77
2023/08/06 03:47:29;;;;;;;14.52;3.83;;;;;;;16.27;100.00;99608.06;2041226;28;20423;-77
2023/08/06 03:48:30;;;;;;;13.93;3.80;;;;;;;16.26;100.00;99625.44;2048740;28;20131;-77
2023/08/06 03:49:36;;;;;;;9.05;3.80;;;;;;;16.30;100.00;99641.84;2056737;28;20073;-77
2023/08/06 03:50:39;;;;;;;9.65;3.70;;;;;;;16.30;100.00;99639.13;2044312;28;21145;-77
2023/08/06 03:51:46;;;;;;;9.20;3.40;;;;;;;16.30;100.00;99645.38;2051264;28;20151;-77
2023/08/06 03:52:48;;;;;;;9.23;3.53;;;;;;;16.31;100.00;99665.94;2073255;28;20064;-77
2023/08/06 03:53:50;;;;;;;10.18;3.28;;;;;;;16.34;100.00;99678.81;2080815;28;20021;-76
2023/08/06 03:54:51;;;;;;;8.85;3.05;;;;;;;16.34;100.00;99700.50;2072879;28;20869;-76
2023/08/06 03:55:59;;;;;;;12.13;3.78;;;;;;;16.36;100.00;99725.41;2056132;28;20085;-76
2023/08/06 03:57:01;;;;;;;9.13;3.80;;;;;;;16.38;100.00;99714.97;2050393;28;20032;-77
2023/08/06 03:58:03;;;;;;;8.38;3.35;;;;;;;16.40;100.00;99728.22;2056888;28;20039;-76
2023/08/06 03:59:04;;;;;;;11.00;3.20;;;;;;;16.40;100.00;99729.00;2056925;28;20078;-77
2023/08/06 04:00:10;;;;;;;11.48;3.75;;;;;;;16.41;100.00;99730.59;2057188;28;20042;-77
2023/08/06 04:01:24;;;;;;;11.15;3.28;;;;;;;16.45;100.00;99741.53;2058635;28;20162;-77
2023/08/06 04:02:28;;;;;;;9.82;3.40;;;;;;;16.46;100.00;99748.56;2040850;28;21060;-77
2023/08/06 04:03:30;;;;;;;7.40;3.55;;;;;;;16.44;100.00;99754.31;2048497;28;20036;-76
2023/08/06 04:04:34;;;;;;;10.65;3.58;;;;;;;16.49;100.00;99757.94;2064945;28;20220;-77
2023/08/06 04:05:36;;;;;;;6.72;2.88;;;;;;;16.44;100.00;99743.47;2056917;28;20027;-77
2023/08/06 04:06:38;;;;;;;6.70;2.95;;;;;;;16.43;100.00;99733.75;2056880;28;20039;-76
2023/08/06 04:07:39;;;;;;;8.93;2.95;;;;;;;16.40;100.00;99737.16;2056773;28;20039;-76
2023/08/06 04:08:41;;;;;;;7.97;3.25;;;;;;;16.39;100.00;99738.28;2056919;28;20035;-76
2023/08/06 04:09:57;;;;;;;5.75;2.47;;;;;;;16.39;100.00;99754.56;2064293;28;20026;-76
2023/08/06 04:11:00;;;;;;;5.72;2.88;;;;;;;16.40;100.00;99750.72;2066686;28;20133;-76
2023/08/06 04:12:04;;;;;;;7.45;2.72;;;;;;;16.39;100.00;99754.56;2064204;28;20134;-76
2023/08/06 04:13:06;;;;;;;7.15;3.10;;;;;;;16.38;100.00;99746.75;2064852;28;20211;-75
2023/08/06 04:14:10;;;;;;;5.15;3.00;;;;;;;16.40;100.00;99745.28;2056720;28;20978;-76
2023/08/06 04:15:11;;;;;;;11.38;3.20;;;;;;;16.40;100.00;99739.06;2056660;28;20790;-77
2023/08/06 04:16:14;;;;;;;11.98;3.10;;;;;;;16.40;100.00;99739.06;2048231;28;20036;-76
2023/08/06 04:17:20;;;;;;;8.07;2.72;;;;;;;16.40;100.00;99739.06;2049247;28;20951;-76
2023/08/06 04:18:21;;;;;;;6.90;2.75;;;;;;;16.39;100.00;99737.47;2057023;28;20038;-76
2023/08/06 04:19:24;;;;;;;6.18;2.97;;;;;;;16.39;100.00;99732.03;2056714;28;20037;-76
2023/08/06 04:20:30;;;;;;;8.98;3.15;;;;;;;16.40;100.00;99729.00;2048026;28;20950;-76
2023/08/06 04:21:37;;;;;;;7.13;2.55;;;;;;;16.40;100.00;99722.78;2058915;28;20792;-77
2023/08/06 04:22:40;;;;;;;8.80;3.13;;;;;;;16.41;100.00;99714.31;2072573;28;20981;-76
2023/08/06 04:23:45;;;;;;;10.48;2.97;;;;;;;16.42;100.00;99709.66;2072700;28;20030;-77
2023/08/06 04:24:48;;;;;;;10.80;3.50;;;;;;;16.41;100.00;99698.03;2069126;28;20026;-77
2023/08/06 04:25:49;;;;;;;7.68;2.80;;;;;;;16.39;100.00;99694.88;2045129;28;20042;-76
2023/08/06 04:26:51;;;;;;;10.98;3.40;;;;;;;16.41;100.00;99698.03;2056815;28;21025;-76
2023/08/06 04:27:53;;;;;;;8.27;2.83;;;;;;;16.42;100.00;99688.78;2064271;28;20038;-77
2023/08/06 04:28:54;;;;;;;9.20;3.22;;;;;;;16.44;100.00;99691.13;2064451;28;20194;-77
2023/08/06 04:29:57;;;;;;;8.68;3.10;;;;;;;16.43;100.00;99684.91;2055731;28;20059;-77
2023/08/06 04:31:00;;;;;;;8.00;3.10;;;;;;;16.42;100.00;99691.50;2056880;28;20142;-76
2023/08/06 04:32:05;;;;;;;7.30;3.00;;;;;;;16.44;100.00;99681.06;2064873;28;20996;-75
2023/08/06 04:33:07;;;;;;;11.18;3.20;;;;;;;16.48;100.00;99685.81;2055876;28;20082;-76
2023/08/06 04:34:09;;;;;;;8.50;3.00;;;;;;;16.48;100.00;99677.69;2033299;28;20167;-75
2023/08/06 04:35:14;;;;;;;8.18;2.85;;;;;;;16.50;100.00;99667.28;2050016;28;20791;-75
2023/08/06 04:36:18;;;;;;;8.23;2.67;;;;;;;16.47;100.00;99662.53;2048519;28;20032;-75
2023/08/06 04:37:20;;;;;;;11.93;2.80;;;;;;;16.51;100.00;99663.44;2049496;28;20035;-76
2023/08/06 04:38:25;;;;;;;9.68;3.42;;;;;;;16.49;100.00;99665.69;2064403;28;20030;-75
2023/08/06 04:39:27;;;;;;;7.60;3.13;;;;;;;16.49;100.00;99666.50;2056631;28;20023;-75
2023/08/06 04:40:32;;;;;;;9.60;3.05;;;;;;;16.51;100.00;99669.66;2048457;28;20047;-76
2023/08/06 04:41:34;;;;;;;10.85;2.92;;;;;;;16.54;100.00;99662.75;2057698;28;20771;-75
2023/08/06 04:42:36;;;;;;;11.35;2.83;;;;;;;16.53;100.00;99655.75;2064647;28;20023;-76
2023/08/06 04:43:37;;;;;;;7.65;3.10;;;;;;;16.54;100.00;99660.81;2064448;28;20032;-77
2023/08/06 04:44:45;;;;;;;8.82;2.90;;;;;;;16.55;100.00;99653.47;2050010;28;20024;-77
2023/08/06 04:45:51;;;;;;;11.07;3.08;;;;;;;16.56;100.00;99660.50;2041845;28;20079;-76
2023/08/06 04:46:53;;;;;;;12.02;3.55;;;;;;;16.55;100.00;99650.75;2042442;28;20032;-76
2023/08/06 04:47:55;;;;;;;10.75;3.03;;;;;;;16.56;100.00;99649.66;2056435;28;20078;-75
2023/08/06 04:48:57;;;;;;;8.07;3.10;;;;;;;16.57;100.00;99648.50;2056646;28;20032;-75
2023/08/06 04:49:59;;;;;;;7.07;2.67;;;;;;;16.58;100.00;99647.38;2048238;28;20060;-75
2023/08/06 04:51:01;;;;;;;13.75;3.08;;;;;;;16.56;100.00;99645.00;2056292;28;20039;-75
2023/08/06 04:52:04;;;;;;;7.22;2.65;;;;;;;16.58;100.00;99644.66;2072673;28;21011;-75
2023/08/06 04:53:09;;;;;;;6.78;2.97;;;;;;;16.59;100.00;99655.19;2072391;28;20096;-75
2023/08/06 04:54:12;;;;;;;8.63;2.85;;;;;;;16.59;100.00;99659.81;2064693;28;20038;-75
2023/08/06 04:55:15;;;;;;;8.40;2.60;;;;;;;16.59;100.00;99646.25;2064584;28;20030;-75
2023/08/06 04:56:17;;;;;;;6.80;3.00;;;;;;;16.60;100.00;99647.81;2064527;28;20031;-75